Forside
METAR-TAF:

METAR-TAF

Lufthavne :

Aalborg Lufthavn

Aalborg, Danmark

Breddekreds: 57-06N, længdekreds: 009-51E, højde: 3 m

Aktuelle vejr

Denne rapport blev lavet for 18 minutter siden, kl. 14:50 UTC
Vind 11 kt fra østnordøst
Temperatur 13°C
Fugtighed 38%
Tryk 1026 hPa
Sigt 10 km eller mere

METAR: EKYT 171450Z AUTO 06011KT 9999 FEW110/// 13/M01 Q1026

Tid: 17:08 (15:08 UTC)

Vejrudsigter

Denne rapport blev lavet for 59 minutter siden, kl. 14:09 UTC
Foreløbig gælder fra 17 på 15 UTC til 18 på 15 UTC
Vind 12 kt fra nordøst
Sigt 10 km eller mere
Spredte skyer i en højde af 10000 ft
ændring
fra 17 på 18 UTC til 17 på 21 UTC
Vind 6 kt fra nordøst

TAF: EKYT 171409Z 1715/1815 05012KT 9999 SCT100 BECMG 1718/1721 05006KT

Vejrobservationer og prognoser fra mere end 4000 lufthavne (METAR og TAF).

De gule og røde prikker repræsenterer de meteorologiske stationer.

Flyt musen over at se navnet på stationen.

Så klik over at se vejr observationer og prognoser.

At skifte det kort: Klik på de grønne knapper med et sort kors for at zoome ind; på den grønne knap med en bindestreg for at zoome ud; eller på de grønne pile for tilstødende kort.


METAR-TAF: